createdAt,value
2023-04-15T00:00:07.259Z,97848.88
2023-04-15T00:02:20.242Z,97839.88
2023-04-15T00:04:25.919Z,97841.50
2023-04-15T00:06:31.267Z,97848.09
2023-04-15T00:08:36.509Z,97840.66
2023-04-15T00:10:46.694Z,97842.34
2023-04-15T00:12:52.886Z,97838.22
2023-04-15T00:14:59.058Z,97837.34
2023-04-15T00:17:04.669Z,97837.25
2023-04-15T00:19:09.820Z,97843.91
2023-04-15T00:21:14.830Z,97847.13
2023-04-15T00:23:19.846Z,97832.19
2023-04-15T00:25:25.086Z,97835.59
2023-04-15T00:27:33.647Z,97836.50
2023-04-15T00:29:38.690Z,97837.34
2023-04-15T00:31:44.138Z,97832.28
2023-04-15T00:33:49.624Z,97838.88
2023-04-15T00:35:54.637Z,97838.06
2023-04-15T00:37:59.938Z,97842.25
2023-04-15T00:40:05.770Z,97827.38
2023-04-15T00:42:12.394Z,97829.78
2023-04-15T00:44:21.413Z,97830.63
2023-04-15T00:46:27.114Z,97825.66
2023-04-15T00:48:32.868Z,97822.25
2023-04-15T00:50:38.113Z,97820.59
2023-04-15T00:52:43.808Z,97823.03
2023-04-15T00:54:48.921Z,97823.91
2023-04-15T00:56:54.025Z,97821.38
2023-04-15T00:58:59.815Z,97819.72
2023-04-15T01:01:08.024Z,97827.13
2023-04-15T01:03:13.427Z,97826.13
2023-04-15T01:05:19.906Z,97823.69
2023-04-15T01:07:25.147Z,97830.28
2023-04-15T01:09:30.329Z,97825.31
2023-04-15T01:11:36.493Z,97821.22
2023-04-15T01:13:41.884Z,97820.44
2023-04-15T01:15:47.128Z,97815.47
2023-04-15T01:17:54.978Z,97817.94
2023-04-15T01:20:00.875Z,97816.16
2023-04-15T01:22:08.802Z,97814.50
2023-04-15T01:24:21.407Z,97815.38
2023-04-15T01:26:30.900Z,97815.25
2023-04-15T01:28:36.243Z,97812.00
2023-04-15T01:30:43.109Z,97816.09
2023-04-15T01:32:48.180Z,97817.75
2023-04-15T01:34:53.211Z,97819.41
2023-04-15T01:37:01.576Z,97816.09
2023-04-15T01:39:07.696Z,97818.50
2023-04-15T01:41:12.714Z,97823.50
2023-04-15T01:43:20.588Z,97817.63
2023-04-15T01:45:25.940Z,97818.50
2023-04-15T01:47:31.369Z,97816.91
2023-04-15T01:49:37.563Z,97818.56
2023-04-15T01:51:42.683Z,97808.69
2023-04-15T01:53:48.638Z,97811.19
2023-04-15T01:55:54.223Z,97811.13
2023-04-15T01:58:00.165Z,97812.66
2023-04-15T02:00:09.944Z,97803.59
2023-04-15T02:02:20.733Z,97794.50
2023-04-15T02:04:26.307Z,97791.94
2023-04-15T02:06:32.201Z,97793.66
2023-04-15T02:08:37.679Z,97805.25
2023-04-15T02:10:45.811Z,97796.91
2023-04-15T02:12:51.160Z,97805.19
2023-04-15T02:14:57.130Z,97794.47
2023-04-15T02:17:07.584Z,97795.25
2023-04-15T02:19:13.120Z,97795.25
2023-04-15T02:21:19.090Z,97791.19
2023-04-15T02:23:24.492Z,97788.69
2023-04-15T02:25:29.879Z,97798.66
2023-04-15T02:27:35.152Z,97788.63
2023-04-15T02:29:40.469Z,97792.69
2023-04-15T02:31:46.327Z,97792.53
2023-04-15T02:33:54.379Z,97790.94
2023-04-15T02:35:59.450Z,97794.31
2023-04-15T02:38:04.745Z,97795.19
2023-04-15T02:40:13.636Z,97803.50
2023-04-15T02:42:18.871Z,97791.94
2023-04-15T02:44:25.456Z,97796.91
2023-04-15T02:46:35.344Z,97796.91
2023-04-15T02:48:40.869Z,97795.22
2023-04-15T02:50:49.800Z,97798.53
2023-04-15T02:52:55.554Z,97796.03
2023-04-15T02:55:02.685Z,97792.66
2023-04-15T02:57:08.973Z,97788.44
2023-04-15T02:59:15.487Z,97788.50
2023-04-15T03:01:20.778Z,97790.03
2023-04-15T03:03:27.006Z,97793.31
2023-04-15T03:05:32.784Z,97788.28
2023-04-15T03:07:42.481Z,97787.34
2023-04-15T03:09:49.106Z,97787.34
2023-04-15T03:11:54.935Z,97793.22
2023-04-15T03:14:01.275Z,97793.19
2023-04-15T03:16:12.061Z,97793.19
2023-04-15T03:18:17.214Z,97783.34
2023-04-15T03:20:24.053Z,97789.16
2023-04-15T03:22:30.154Z,97785.13
2023-04-15T03:24:37.805Z,97781.78
2023-04-15T03:26:42.893Z,97781.88
2023-04-15T03:28:51.176Z,97775.31
2023-04-15T03:30:57.423Z,97776.97
2023-04-15T03:33:02.694Z,97772.69
2023-04-15T03:35:09.783Z,97778.44
2023-04-15T03:37:14.796Z,97777.72
2023-04-15T03:39:19.877Z,97780.22
2023-04-15T03:41:27.486Z,97776.91
2023-04-15T03:43:32.776Z,97778.56
2023-04-15T03:45:37.942Z,97783.63
2023-04-15T03:47:43.167Z,97773.66
2023-04-15T03:49:48.182Z,97777.03
2023-04-15T03:51:53.204Z,97780.47
2023-04-15T03:53:58.878Z,97779.75
2023-04-15T03:56:03.896Z,97782.34
2023-04-15T03:58:13.083Z,97780.69
2023-04-15T04:00:18.778Z,97777.44
2023-04-15T04:02:24.060Z,97770.84
2023-04-15T04:04:29.276Z,97778.97
2023-04-15T04:06:34.627Z,97779.78
2023-04-15T04:08:39.697Z,97785.66
2023-04-15T04:10:45.156Z,97781.53
2023-04-15T04:12:50.734Z,97784.00
2023-04-15T04:14:58.306Z,97780.00
2023-04-15T04:17:03.898Z,97781.72
2023-04-15T04:19:08.908Z,97781.91
2023-04-15T04:21:14.555Z,97796.06
2023-04-15T04:23:20.077Z,97793.66
2023-04-15T04:25:25.968Z,97792.06
2023-04-15T04:27:31.665Z,97800.38
2023-04-15T04:29:37.021Z,97801.16
2023-04-15T04:31:44.824Z,97803.63
2023-04-15T04:33:50.153Z,97805.22
2023-04-15T04:35:55.190Z,97797.00
2023-04-15T04:38:00.464Z,97801.09
2023-04-15T04:40:05.522Z,97796.16
2023-04-15T04:42:11.170Z,97791.22
2023-04-15T04:44:16.165Z,97799.44
2023-04-15T04:46:21.866Z,97790.19
2023-04-15T04:48:29.889Z,97804.16
2023-04-15T04:50:35.501Z,97800.72
2023-04-15T04:52:41.522Z,97802.28
2023-04-15T04:54:47.472Z,97797.28
2023-04-15T04:56:52.486Z,97805.53
2023-04-15T04:58:57.476Z,97803.88
2023-04-15T05:01:03.185Z,97797.03
2023-04-15T05:03:08.944Z,97798.56
2023-04-15T05:05:16.733Z,97797.75
2023-04-15T05:07:22.343Z,97797.69
2023-04-15T05:09:27.347Z,97796.81
2023-04-15T05:11:32.796Z,97799.22
2023-04-15T05:13:38.829Z,97794.19
2023-04-15T05:15:43.880Z,97795.78
2023-04-15T05:17:48.990Z,97794.84
2023-04-15T05:19:54.094Z,97804.72
2023-04-15T05:22:01.773Z,97799.59
2023-04-15T05:24:08.012Z,97797.75
2023-04-15T05:26:13.108Z,97801.81
2023-04-15T05:28:18.362Z,97810.88
2023-04-15T05:30:23.411Z,97800.88
2023-04-15T05:32:29.032Z,97809.00
2023-04-15T05:34:34.090Z,97801.44
2023-04-15T05:36:39.142Z,97814.59
2023-04-15T05:38:46.827Z,97811.22
2023-04-15T05:40:51.921Z,97811.13
2023-04-15T05:42:57.998Z,97816.78
2023-04-15T05:45:05.628Z,97810.88
2023-04-15T05:47:11.112Z,97814.97
2023-04-15T05:49:16.446Z,97814.94
2023-04-15T05:51:21.550Z,97818.13
2023-04-15T05:53:27.036Z,97822.19
2023-04-15T05:55:34.672Z,97822.03
2023-04-15T05:57:40.219Z,97822.75
2023-04-15T05:59:45.304Z,97818.50
2023-04-15T06:01:50.621Z,97818.44
2023-04-15T06:03:55.939Z,97828.59
2023-04-15T06:06:01.181Z,97827.72
2023-04-15T06:08:06.847Z,97827.50
2023-04-15T06:10:13.176Z,97829.78
2023-04-15T06:12:21.044Z,97828.69
2023-04-15T06:14:26.206Z,97831.97
2023-04-15T06:16:31.389Z,97824.34
2023-04-15T06:18:37.405Z,97826.75
2023-04-15T06:20:42.449Z,97825.75
2023-04-15T06:22:47.485Z,97820.56
2023-04-15T06:24:53.200Z,97835.34
2023-04-15T06:26:58.221Z,97829.59
2023-04-15T06:29:05.937Z,97830.97
2023-04-15T06:31:11.125Z,97829.13
2023-04-15T06:33:16.598Z,97832.28
2023-04-15T06:35:22.281Z,97833.75
2023-04-15T06:37:27.525Z,97829.63
2023-04-15T06:39:32.787Z,97828.47
2023-04-15T06:41:37.872Z,97826.69
2023-04-15T06:43:43.521Z,97827.31
2023-04-15T06:45:51.156Z,97827.78
2023-04-15T06:47:56.217Z,97827.47
2023-04-15T06:50:01.328Z,97825.16
2023-04-15T06:52:06.422Z,97827.59
2023-04-15T06:54:11.908Z,97826.66
2023-04-15T06:56:17.105Z,97829.34
2023-04-15T06:58:22.403Z,97830.06
2023-04-15T07:00:29.056Z,97820.88
2023-04-15T07:02:36.977Z,97827.63
2023-04-15T07:04:42.845Z,97830.00
2023-04-15T07:06:47.929Z,97828.13
2023-04-15T07:08:53.359Z,97827.44
2023-04-15T07:10:58.409Z,97828.66
2023-04-15T07:13:03.865Z,97827.13
2023-04-15T07:15:11.171Z,97822.50
2023-04-15T07:17:16.265Z,97818.44
2023-04-15T07:19:24.562Z,97827.34
2023-04-15T07:21:29.822Z,97825.50
2023-04-15T07:23:34.858Z,97831.94
2023-04-15T07:25:39.916Z,97833.78
2023-04-15T07:27:44.918Z,97820.78
2023-04-15T07:29:51.948Z,97831.16
2023-04-15T07:31:57.330Z,97822.50
2023-04-15T07:34:02.897Z,97834.72
2023-04-15T07:36:10.697Z,97830.47
2023-04-15T07:38:15.726Z,97819.63
2023-04-15T07:40:22.527Z,97829.19
2023-04-15T07:42:27.902Z,97816.63
2023-04-15T07:44:33.484Z,97823.81
2023-04-15T07:46:38.794Z,97819.41
2023-04-15T07:48:44.098Z,97824.22
2023-04-15T07:50:49.120Z,97819.81
2023-04-15T07:52:57.514Z,97830.06
2023-04-15T07:55:02.670Z,97838.03
2023-04-15T07:57:08.075Z,97824.63
2023-04-15T07:59:13.220Z,97824.50
2023-04-15T08:01:18.252Z,97823.88
2023-04-15T08:03:24.346Z,97823.06
2023-04-15T08:05:29.726Z,97822.66
2023-04-15T08:07:34.879Z,97825.16
2023-04-15T08:09:42.599Z,97827.13
2023-04-15T08:11:47.802Z,97830.16
2023-04-15T08:13:52.839Z,97829.34
2023-04-15T08:16:23.089Z,97832.75
2023-04-15T08:18:28.130Z,97833.94
2023-04-15T08:20:33.328Z,97836.25
2023-04-15T08:22:38.340Z,97834.16
2023-04-15T08:24:46.123Z,97833.84
2023-04-15T08:26:51.315Z,97848.56
2023-04-15T08:28:56.588Z,97842.84
2023-04-15T08:31:01.908Z,97843.97
2023-04-15T08:33:07.073Z,97840.78
2023-04-15T08:35:12.595Z,97840.84
2023-04-15T08:37:17.716Z,97848.06
2023-04-15T08:39:22.917Z,97843.91
2023-04-15T08:41:34.637Z,97847.00
2023-04-15T08:43:49.505Z,97843.50
2023-04-15T08:45:55.953Z,97845.34
2023-04-15T08:48:01.596Z,97845.56
2023-04-15T08:50:09.435Z,97850.19
2023-04-15T08:52:14.999Z,97844.16
2023-04-15T08:54:21.587Z,97853.34
2023-04-15T08:56:33.862Z,97845.56
2023-04-15T08:58:39.474Z,97851.34
2023-04-15T09:00:46.284Z,97854.13
2023-04-15T09:02:51.599Z,97845.16
2023-04-15T09:04:56.903Z,97843.03
2023-04-15T09:07:02.309Z,97844.56
2023-04-15T09:09:08.340Z,97839.97
2023-04-15T09:11:13.729Z,97844.13
2023-04-15T09:13:22.124Z,97842.03
2023-04-15T09:15:30.380Z,97846.00
2023-04-15T09:17:37.305Z,97849.28
2023-04-15T09:19:42.708Z,97853.81
2023-04-15T09:21:51.306Z,97854.13
2023-04-15T09:24:02.506Z,97858.53
2023-04-15T09:26:09.226Z,97858.63
2023-04-15T09:28:14.535Z,97865.19
2023-04-15T09:30:22.530Z,97863.66
2023-04-15T09:32:27.572Z,97867.34
2023-04-15T09:34:39.680Z,97863.69
2023-04-15T09:37:00.091Z,97870.81
2023-04-15T09:39:05.124Z,97871.84
2023-04-15T09:41:21.654Z,97876.47
2023-04-15T09:43:40.636Z,97869.50
2023-04-15T09:45:53.051Z,97875.09
2023-04-15T09:47:59.370Z,97875.22
2023-04-15T09:50:05.054Z,97875.53
2023-04-15T09:52:10.197Z,97879.09
2023-04-15T09:54:15.240Z,97877.94
2023-04-15T09:56:20.854Z,97876.41
2023-04-15T09:58:28.141Z,97886.22
2023-04-15T10:00:35.649Z,97878.13
2023-04-15T10:02:45.301Z,97878.19
2023-04-15T10:04:52.281Z,97879.28
2023-04-15T10:06:57.385Z,97878.25
2023-04-15T10:09:03.501Z,97879.16
2023-04-15T10:11:10.327Z,97881.97
2023-04-15T10:13:17.865Z,97875.13
2023-04-15T10:15:23.851Z,97882.50
2023-04-15T10:17:33.814Z,97892.25
2023-04-15T10:19:42.463Z,97888.22
2023-04-15T10:21:48.687Z,97885.69
2023-04-15T10:23:54.158Z,97888.75
2023-04-15T10:26:00.686Z,97889.66
2023-04-15T10:28:06.314Z,97890.13
2023-04-15T10:30:12.507Z,97898.72
2023-04-15T10:32:19.070Z,97894.94
2023-04-15T10:34:25.785Z,97894.72
2023-04-15T10:36:34.092Z,97901.78
2023-04-15T10:38:41.933Z,97898.13
2023-04-15T10:40:47.366Z,97909.25
2023-04-15T10:42:52.911Z,97907.84
2023-04-15T10:45:00.407Z,97907.16
2023-04-15T10:47:13.803Z,97911.19
2023-04-15T10:49:27.024Z,97915.53
2023-04-15T10:51:35.184Z,97912.69
2023-04-15T10:53:40.435Z,97920.75
2023-04-15T10:55:45.456Z,97915.00
2023-04-15T10:57:54.659Z,97918.38
2023-04-15T11:00:15.109Z,97919.19
2023-04-15T11:02:20.203Z,97910.78
2023-04-15T11:04:57.715Z,97916.53
2023-04-15T11:07:11.367Z,97915.16
2023-04-15T11:09:35.258Z,97916.44
2023-04-15T11:12:12.086Z,97917.94
2023-04-15T11:14:19.106Z,97920.47
2023-04-15T11:16:24.150Z,97915.31
2023-04-15T11:18:33.058Z,97927.03
2023-04-15T11:20:38.805Z,97921.13
2023-04-15T11:23:14.654Z,97927.44
2023-04-15T11:25:26.751Z,97925.22
2023-04-15T11:27:34.025Z,97930.19
2023-04-15T11:29:39.025Z,97934.41
2023-04-15T11:31:46.154Z,97939.13
2023-04-15T11:33:59.608Z,97939.03
2023-04-15T11:36:04.528Z,97939.31
2023-04-15T11:38:15.544Z,97940.44
2023-04-15T11:40:25.514Z,97937.88
2023-04-15T11:42:42.758Z,97938.66
2023-04-15T11:44:51.720Z,97940.53
2023-04-15T11:46:59.278Z,97942.91
2023-04-15T11:49:05.432Z,97942.09
2023-04-15T11:51:11.056Z,97942.19
2023-04-15T11:53:18.672Z,97946.72
2023-04-15T11:55:24.108Z,97951.84
2023-04-15T11:57:34.697Z,97945.28
2023-04-15T11:59:46.361Z,97949.91
2023-04-15T12:01:52.629Z,97951.66
2023-04-15T12:04:00.040Z,97953.94
2023-04-15T12:06:11.747Z,97946.53
2023-04-15T12:08:19.334Z,97954.91
2023-04-15T12:10:27.073Z,97959.94
2023-04-15T12:12:32.200Z,97958.94
2023-04-15T12:14:38.463Z,97963.53
2023-04-15T12:16:49.214Z,97960.84
2023-04-15T12:18:56.649Z,97962.50
2023-04-15T12:21:12.881Z,97963.94
2023-04-15T12:23:22.746Z,97963.84
2023-04-15T12:25:38.417Z,97968.88
2023-04-15T12:27:43.449Z,97967.09
2023-04-15T12:29:48.966Z,97972.47
2023-04-15T12:31:56.756Z,97975.97
2023-04-15T12:34:02.781Z,97981.56
2023-04-15T12:36:09.557Z,97983.03
2023-04-15T12:38:14.786Z,97982.47
2023-04-15T12:40:23.658Z,97988.72
2023-04-15T12:42:28.929Z,97986.44
2023-04-15T12:44:36.163Z,97985.34
2023-04-15T12:46:41.618Z,97992.13
2023-04-15T12:48:47.049Z,97992.31
2023-04-15T12:50:52.084Z,98000.81
2023-04-15T12:52:57.366Z,97994.09
2023-04-15T12:55:02.877Z,97999.03
2023-04-15T12:57:10.509Z,97994.09
2023-04-15T12:59:16.219Z,98004.06
2023-04-15T13:01:21.440Z,98009.31
2023-04-15T13:03:26.598Z,98003.22
2023-04-15T13:05:32.331Z,98018.94
2023-04-15T13:07:37.497Z,98013.41
2023-04-15T13:09:42.507Z,98014.59
2023-04-15T13:11:47.868Z,98020.50
2023-04-15T13:13:56.157Z,98021.63
2023-04-15T13:16:02.090Z,98015.03
2023-04-15T13:18:09.879Z,98020.81
2023-04-15T13:20:15.564Z,98028.31
2023-04-15T13:22:20.590Z,98027.63
2023-04-15T13:24:25.870Z,98026.81
2023-04-15T13:26:31.902Z,98027.72
2023-04-15T13:28:37.325Z,98031.91
2023-04-15T13:30:46.270Z,98025.28
2023-04-15T13:32:51.900Z,98037.00
2023-04-15T13:34:57.522Z,98035.94
2023-04-15T13:37:09.102Z,98035.19
2023-04-15T13:39:14.159Z,98037.09
2023-04-15T13:41:20.448Z,98043.78
2023-04-15T13:43:25.490Z,98042.03
2023-04-15T13:45:30.571Z,98050.44
2023-04-15T13:47:38.248Z,98048.81
2023-04-15T13:49:43.399Z,98050.44
2023-04-15T13:51:48.845Z,98044.69
2023-04-15T13:53:53.855Z,98049.09
2023-04-15T13:55:59.263Z,98051.78
2023-04-15T13:58:04.315Z,98050.00
2023-04-15T14:00:11.587Z,98055.06
2023-04-15T14:02:16.703Z,98055.00
2023-04-15T14:04:24.622Z,98057.34
2023-04-15T14:06:30.395Z,98058.31
2023-04-15T14:08:35.645Z,98059.81
2023-04-15T14:10:44.363Z,98067.97
2023-04-15T14:12:49.369Z,98064.75
2023-04-15T14:14:54.420Z,98069.91
2023-04-15T14:17:00.299Z,98075.31
2023-04-15T14:19:05.947Z,98080.34
2023-04-15T14:21:13.779Z,98080.34
2023-04-15T14:23:18.821Z,98084.66
2023-04-15T14:25:33.405Z,98080.44
2023-04-15T14:27:39.189Z,98090.31
2023-04-15T14:29:44.191Z,98091.88
2023-04-15T14:32:10.935Z,98092.72
2023-04-15T14:34:15.644Z,98099.31
2023-04-15T14:36:23.280Z,98098.28
2023-04-15T14:38:28.755Z,98102.38
2023-04-15T14:40:33.770Z,98103.38
2023-04-15T14:42:40.356Z,98106.84
2023-04-15T14:44:45.362Z,98112.69
2023-04-15T14:46:50.912Z,98115.22
2023-04-15T14:48:56.081Z,98111.94
2023-04-15T14:51:02.529Z,98116.28
2023-04-15T14:53:10.750Z,98123.06
2023-04-15T14:55:16.363Z,98115.66
2023-04-15T14:57:21.936Z,98123.03
2023-04-15T14:59:27.444Z,98127.22
2023-04-15T15:01:33.158Z,98129.81
2023-04-15T15:03:38.402Z,98137.34
2023-04-15T15:05:44.464Z,98138.91
2023-04-15T15:07:50.576Z,98139.06
2023-04-15T15:09:58.520Z,98133.81
2023-04-15T15:12:03.840Z,98143.16
2023-04-15T15:14:08.829Z,98148.72
2023-04-15T15:16:14.596Z,98154.81
2023-04-15T15:18:20.139Z,98155.72
2023-04-15T15:20:25.577Z,98163.19
2023-04-15T15:22:30.960Z,98162.34
2023-04-15T15:24:36.037Z,98164.72
2023-04-15T15:26:43.661Z,98171.34
2023-04-15T15:28:50.718Z,98167.44
2023-04-15T15:30:55.933Z,98168.56
2023-04-15T15:33:01.096Z,98172.38
2023-04-15T15:35:06.385Z,98172.44
2023-04-15T15:37:11.467Z,98170.06
2023-04-15T15:39:16.494Z,98168.31
2023-04-15T15:41:21.602Z,98175.66
2023-04-15T15:43:29.538Z,98183.13
2023-04-15T15:45:34.979Z,98180.66
2023-04-15T15:47:40.692Z,98180.75
2023-04-15T15:49:46.321Z,98182.22
2023-04-15T15:51:52.084Z,98185.78
2023-04-15T15:53:57.346Z,98186.59
2023-04-15T15:56:03.919Z,98189.97
2023-04-15T15:58:08.931Z,98190.69
2023-04-15T16:00:18.063Z,98202.53
2023-04-15T16:02:37.583Z,98203.31
2023-04-15T16:04:46.050Z,98201.72
2023-04-15T16:06:51.864Z,98204.34
2023-04-15T16:08:56.876Z,98204.44
2023-04-15T16:11:01.979Z,98215.97
2023-04-15T16:13:07.273Z,98209.31
2023-04-15T16:15:16.343Z,98208.47
2023-04-15T16:17:21.353Z,98214.22
2023-04-15T16:19:26.395Z,98210.97
2023-04-15T16:21:32.511Z,98214.31
2023-04-15T16:23:39.507Z,98214.91
2023-04-15T16:25:46.227Z,98210.47
2023-04-15T16:28:03.167Z,98217.22
2023-04-15T16:30:17.862Z,98222.59
2023-04-15T16:32:23.248Z,98221.84
2023-04-15T16:34:28.492Z,98221.03
2023-04-15T16:36:40.497Z,98234.44
2023-04-15T16:38:48.815Z,98235.94
2023-04-15T16:40:54.273Z,98234.22
2023-04-15T16:42:59.304Z,98234.97
2023-04-15T16:45:04.560Z,98235.09
2023-04-15T16:47:12.237Z,98236.63
2023-04-15T16:49:17.322Z,98238.44
2023-04-15T16:51:22.335Z,98242.44
2023-04-15T16:53:27.437Z,98240.88
2023-04-15T16:55:32.455Z,98238.44
2023-04-15T16:58:02.742Z,98242.44
2023-04-15T17:00:02.927Z,98242.53
2023-04-15T17:02:08.025Z,98244.09
2023-04-15T17:04:16.235Z,98244.91
2023-04-15T17:06:21.415Z,98249.84
2023-04-15T17:08:26.475Z,98251.59
2023-04-15T17:10:31.519Z,98261.69
2023-04-15T17:12:36.551Z,98256.97
2023-04-15T17:14:41.570Z,98266.28
2023-04-15T17:16:46.754Z,98261.97
2023-04-15T17:18:52.258Z,98267.69
2023-04-15T17:20:59.932Z,98269.44
2023-04-15T17:23:04.954Z,98279.53
2023-04-15T17:25:11.328Z,98273.72
2023-04-15T17:27:16.499Z,98273.78
2023-04-15T17:29:21.558Z,98274.66
2023-04-15T17:31:26.619Z,98284.56
2023-04-15T17:34:00.208Z,98279.59
2023-04-15T17:36:00.819Z,98277.97
2023-04-15T17:38:05.814Z,98283.94
2023-04-15T17:40:12.990Z,98286.19
2023-04-15T17:42:18.213Z,98292.84
2023-04-15T17:44:25.190Z,98287.13
2023-04-15T17:46:30.884Z,98292.94
2023-04-15T17:48:36.564Z,98294.50
2023-04-15T17:50:41.750Z,98291.38
2023-04-15T17:52:50.459Z,98293.00
2023-04-15T17:54:56.225Z,98303.91
2023-04-15T17:57:01.522Z,98301.31
2023-04-15T17:59:07.112Z,98301.41
2023-04-15T18:01:12.163Z,98304.84
2023-04-15T18:03:17.821Z,98304.84
2023-04-15T18:05:23.225Z,98309.84
2023-04-15T18:07:28.247Z,98314.69
2023-04-15T18:09:36.362Z,98308.22
2023-04-15T18:11:44.014Z,98314.09
2023-04-15T18:13:49.003Z,98312.28
2023-04-15T18:15:54.726Z,98317.31
2023-04-15T18:17:59.886Z,98319.19
2023-04-15T18:20:05.262Z,98321.47
2023-04-15T18:22:10.467Z,98323.84
2023-04-15T18:24:16.208Z,98322.44
2023-04-15T18:26:24.413Z,98330.06
2023-04-15T18:28:29.687Z,98333.31
2023-04-15T18:30:34.828Z,98333.19
2023-04-15T18:32:40.085Z,98337.34
2023-04-15T18:34:45.587Z,98343.41
2023-04-15T18:36:50.931Z,98351.78
2023-04-15T18:38:55.986Z,98350.03
2023-04-15T18:41:01.015Z,98353.47
2023-04-15T18:43:09.555Z,98356.91
2023-04-15T18:45:14.907Z,98360.25
2023-04-15T18:47:20.325Z,98358.59
2023-04-15T18:49:27.300Z,98357.72
2023-04-15T18:51:32.720Z,98360.00
2023-04-15T18:53:37.739Z,98363.47
2023-04-15T18:55:43.114Z,98371.69
2023-04-15T18:57:48.385Z,98368.16
2023-04-15T18:59:57.144Z,98372.44
2023-04-15T19:04:12.215Z,98378.19
2023-04-15T19:06:17.247Z,98388.09
2023-04-15T19:08:22.355Z,98393.16
2023-04-15T19:10:28.432Z,98389.88
2023-04-15T19:12:33.472Z,98395.84
2023-04-15T19:14:38.485Z,98391.75
2023-04-15T19:16:46.263Z,98401.72
2023-04-15T19:18:51.373Z,98401.72
2023-04-15T19:20:56.535Z,98402.50
2023-04-15T19:23:01.563Z,98405.81
2023-04-15T19:25:08.111Z,98404.94
2023-04-15T19:27:13.444Z,98407.59
2023-04-15T19:29:18.480Z,98406.03
2023-04-15T19:31:23.593Z,98406.13
2023-04-15T19:33:31.648Z,98406.59
2023-04-15T19:35:38.397Z,98409.09
2023-04-15T19:37:43.743Z,98405.00
2023-04-15T19:39:48.750Z,98412.50
2023-04-15T19:41:55.445Z,98415.81
2023-04-15T19:44:00.625Z,98408.53
2023-04-15T19:46:05.750Z,98415.31
2023-04-15T19:48:10.907Z,98417.91
2023-04-15T19:50:21.402Z,98420.25
2023-04-15T19:52:26.436Z,98411.97
2023-04-15T19:54:32.351Z,98421.06
2023-04-15T19:56:37.732Z,98418.56
2023-04-15T19:58:42.733Z,98424.41
2023-04-15T20:00:47.759Z,98420.22
2023-04-15T20:02:53.000Z,98421.88
2023-04-15T20:04:58.087Z,98419.34
2023-04-15T20:07:05.847Z,98425.06
2023-04-15T20:09:11.524Z,98418.41
2023-04-15T20:11:17.454Z,98428.38
2023-04-15T20:13:22.459Z,98428.38
2023-04-15T20:15:27.490Z,98431.50
2023-04-15T20:17:35.878Z,98429.00
2023-04-15T20:19:40.938Z,98434.81
2023-04-15T20:21:46.097Z,98436.41
2023-04-15T20:23:53.676Z,98436.41
2023-04-15T20:25:58.665Z,98428.06
2023-04-15T20:28:03.773Z,98430.56
2023-04-15T20:30:11.115Z,98436.41
2023-04-15T20:32:16.106Z,98438.91
2023-04-15T20:34:21.218Z,98437.34
2023-04-15T20:36:26.702Z,98431.50
2023-04-15T20:38:31.801Z,98434.09
2023-04-15T20:40:41.541Z,98429.81
2023-04-15T20:42:47.465Z,98439.09
2023-04-15T20:44:52.515Z,98441.59
2023-04-15T20:46:57.812Z,98443.41
2023-04-15T20:49:04.140Z,98449.25
2023-04-15T20:51:09.258Z,98443.09
2023-04-15T20:53:14.557Z,98446.44
2023-04-15T20:55:19.743Z,98442.97
2023-04-15T20:57:28.890Z,98447.81
2023-04-15T20:59:34.965Z,98443.03
2023-04-15T21:01:40.383Z,98447.75
2023-04-15T21:03:45.681Z,98446.28
2023-04-15T21:05:51.371Z,98440.59
2023-04-15T21:07:56.885Z,98454.50
2023-04-15T21:10:02.059Z,98447.97
2023-04-15T21:12:07.137Z,98453.00
2023-04-15T21:14:14.730Z,98457.84
2023-04-15T21:16:19.842Z,98457.63
2023-04-15T21:18:25.758Z,98457.72
2023-04-15T21:20:30.767Z,98462.97
2023-04-15T21:22:36.042Z,98456.41
2023-04-15T21:24:41.066Z,98458.81
2023-04-15T21:26:46.043Z,98461.31
2023-04-15T21:28:51.334Z,98462.97
2023-04-15T21:30:59.368Z,98461.22
2023-04-15T21:33:04.382Z,98470.47
2023-04-15T21:35:11.455Z,98476.44
2023-04-15T21:37:16.461Z,98480.50
2023-04-15T21:39:21.683Z,98474.59
2023-04-15T21:41:26.939Z,98481.25
2023-04-15T21:43:32.085Z,98481.25
2023-04-15T21:45:39.479Z,98491.16
2023-04-15T21:47:59.760Z,98484.53
2023-04-15T21:50:13.655Z,98486.84
2023-04-15T21:52:18.712Z,98493.56
2023-04-15T21:54:23.732Z,98494.41
2023-04-15T21:56:28.868Z,98492.94
2023-04-15T21:58:33.937Z,98501.38
2023-04-15T22:00:40.805Z,98496.22
2023-04-15T22:02:48.609Z,98505.41
2023-04-15T22:04:53.658Z,98502.16
2023-04-15T22:07:01.791Z,98503.63
2023-04-15T22:09:06.964Z,98499.44
2023-04-15T22:11:12.612Z,98509.63
2023-04-15T22:13:17.637Z,98504.53
2023-04-15T22:15:22.618Z,98507.81
2023-04-15T22:17:28.317Z,98517.94
2023-04-15T22:19:35.976Z,98514.78
2023-04-15T22:21:41.020Z,98514.78
2023-04-15T22:23:50.185Z,98516.25
2023-04-15T22:25:55.211Z,98513.06
2023-04-15T22:28:00.188Z,98515.63
2023-04-15T22:30:05.462Z,98523.03
2023-04-15T22:32:10.655Z,98520.53
2023-04-15T22:34:21.593Z,98523.94
2023-04-15T22:36:31.281Z,98523.81
2023-04-15T22:38:36.584Z,98529.66
2023-04-15T22:40:41.699Z,98525.59
2023-04-15T22:42:48.016Z,98524.53
2023-04-15T22:44:53.715Z,98533.84
2023-04-15T22:46:58.709Z,98533.94
2023-04-15T22:49:04.770Z,98532.91
2023-04-15T22:51:09.863Z,98543.69
2023-04-15T22:53:19.403Z,98532.88
2023-04-15T22:55:24.496Z,98535.41
2023-04-15T22:57:30.883Z,98545.44
2023-04-15T22:59:36.115Z,98542.09
2023-04-15T23:01:41.251Z,98547.00
2023-04-15T23:03:57.541Z,98542.13
2023-04-15T23:06:11.534Z,98547.03
2023-04-15T23:08:19.335Z,98544.63
2023-04-15T23:10:24.614Z,98545.25
2023-04-15T23:12:29.707Z,98546.16
2023-04-15T23:14:35.304Z,98542.75
2023-04-15T23:16:40.465Z,98549.47
2023-04-15T23:18:45.652Z,98547.78
2023-04-15T23:20:50.968Z,98552.75
2023-04-15T23:22:56.047Z,98559.47
2023-04-15T23:25:03.707Z,98562.78
2023-04-15T23:27:08.706Z,98553.56
2023-04-15T23:29:14.249Z,98562.84
2023-04-15T23:31:19.552Z,98571.16
2023-04-15T23:33:24.594Z,98560.31
2023-04-15T23:35:30.550Z,98569.59
2023-04-15T23:37:35.700Z,98567.91
2023-04-15T23:39:40.692Z,98568.75
2023-04-15T23:41:48.504Z,98566.16
2023-04-15T23:43:53.632Z,98569.47
2023-04-15T23:45:58.659Z,98569.50
2023-04-15T23:48:03.721Z,98572.75
2023-04-15T23:50:11.441Z,98570.25
2023-04-15T23:52:16.465Z,98577.72
2023-04-15T23:54:21.468Z,98571.88
2023-04-15T23:56:26.992Z,98576.06
2023-04-15T23:58:34.733Z,98580.22
